createdAt,value
2016-04-10T00:00:31.717Z,12.03
2016-04-10T00:01:31.735Z,12.09
2016-04-10T00:02:31.753Z,12.07
2016-04-10T00:03:31.772Z,12.09
2016-04-10T00:04:31.806Z,12.07
2016-04-10T00:05:31.824Z,12
2016-04-10T00:06:31.858Z,12.1
2016-04-10T00:07:31.861Z,12.06
2016-04-10T00:08:31.880Z,12.07
2016-04-10T00:09:31.897Z,12.09
2016-04-10T00:10:31.916Z,11.99
2016-04-10T00:11:31.934Z,12.04
2016-04-10T00:12:31.952Z,11.97
2016-04-10T00:13:31.971Z,12
2016-04-10T00:14:32.004Z,12.04
2016-04-10T00:15:32.024Z,11.95
2016-04-10T00:16:32.041Z,12.02
2016-04-10T00:17:32.075Z,11.91
2016-04-10T00:18:32.094Z,12.03
2016-04-10T00:19:32.112Z,11.88
2016-04-10T00:20:32.146Z,11.99
2016-04-10T00:21:32.133Z,11.95
2016-04-10T00:22:32.167Z,11.88
2016-04-10T00:23:32.184Z,11.91
2016-04-10T00:24:32.204Z,11.88
2016-04-10T00:25:32.237Z,11.88
2016-04-10T00:26:32.256Z,11.97
2016-04-10T00:27:32.274Z,11.97
2016-04-10T00:28:32.308Z,11.87
2016-04-10T00:29:32.311Z,11.95
2016-04-10T00:30:32.328Z,11.9
2016-04-10T00:31:32.347Z,11.99
2016-04-10T00:32:32.381Z,11.87
2016-04-10T00:33:32.400Z,11.87
2016-04-10T00:34:32.418Z,11.9
2016-04-10T00:35:32.452Z,11.87
2016-04-10T00:36:32.455Z,11.86
2016-04-10T00:37:32.488Z,11.75
2016-04-10T00:38:32.492Z,11.77
2016-04-10T00:39:32.541Z,11.87
2016-04-10T00:40:32.544Z,11.7
2016-04-10T00:41:32.562Z,11.73
2016-04-10T00:42:32.580Z,11.7
2016-04-10T00:43:32.599Z,11.75
2016-04-10T00:44:32.601Z,11.8
2016-04-10T00:45:32.635Z,11.77
2016-04-10T00:46:32.653Z,11.8
2016-04-10T00:47:32.671Z,11.78
2016-04-10T00:48:32.690Z,11.78
2016-04-10T00:49:32.709Z,11.78
2016-04-10T00:50:32.742Z,11.8
2016-04-10T00:51:32.745Z,11.77
2016-04-10T00:52:34.201Z,11.77
2016-04-10T00:53:32.860Z,11.72
2016-04-10T00:54:32.831Z,11.77
2016-04-10T00:55:32.834Z,11.72
2016-04-10T00:56:32.867Z,11.72
2016-04-10T00:57:32.886Z,11.77
2016-04-10T00:58:32.904Z,11.72
2016-04-10T00:59:32.922Z,11.72
2016-04-10T01:00:32.956Z,11.65
2016-04-10T01:01:32.959Z,11.77
2016-04-10T01:02:32.994Z,11.7
2016-04-10T01:03:33.012Z,11.75
2016-04-10T01:04:33.030Z,11.69
2016-04-10T01:05:33.074Z,11.7
2016-04-10T01:06:33.131Z,11.75
2016-04-10T01:07:33.222Z,11.63
2016-04-10T01:08:33.249Z,11.75
2016-04-10T01:09:33.307Z,11.65
2016-04-10T01:10:33.365Z,11.7
2016-04-10T01:11:33.397Z,11.7
2016-04-10T01:12:33.430Z,11.72
2016-04-10T01:13:33.448Z,11.63
2016-04-10T01:14:33.339Z,11.6
2016-04-10T01:15:33.522Z,11.63
2016-04-10T01:16:33.546Z,11.63
2016-04-10T01:17:33.570Z,11.63
2016-04-10T01:18:33.608Z,11.59
2016-04-10T01:19:33.631Z,11.63
2016-04-10T01:20:33.653Z,11.68
2016-04-10T01:21:33.657Z,11.6
2016-04-10T01:22:33.818Z,11.65
2016-04-10T01:23:33.713Z,11.57
2016-04-10T01:24:33.734Z,11.6
2016-04-10T01:25:33.754Z,11.63
2016-04-10T01:26:33.772Z,11.59
2016-04-10T01:27:33.791Z,11.6
2016-04-10T01:28:33.811Z,11.62
2016-04-10T01:29:33.845Z,11.62
2016-04-10T01:30:33.864Z,11.62
2016-04-10T01:31:33.883Z,11.57
2016-04-10T01:32:33.901Z,11.55
2016-04-10T01:33:33.936Z,11.51
2016-04-10T01:34:33.938Z,11.51
2016-04-10T01:35:33.957Z,11.57
2016-04-10T01:36:33.991Z,11.52
2016-04-10T01:37:34.150Z,11.55
2016-04-10T01:38:34.029Z,11.57
2016-04-10T01:39:34.046Z,11.48
2016-04-10T01:40:34.065Z,11.5
2016-04-10T01:41:34.082Z,11.47
2016-04-10T01:42:34.101Z,11.48
2016-04-10T01:43:34.120Z,11.48
2016-04-10T01:44:34.137Z,11.54
2016-04-10T01:45:34.173Z,11.48
2016-04-10T01:46:34.175Z,11.48
2016-04-10T01:47:34.193Z,11.55
2016-04-10T01:48:34.227Z,11.45
2016-04-10T01:49:34.245Z,11.52
2016-04-10T01:50:34.264Z,11.44
2016-04-10T01:51:34.281Z,11.5
2016-04-10T01:52:33.784Z,11.47
2016-04-10T01:53:34.319Z,11.45
2016-04-10T01:54:34.336Z,11.43
2016-04-10T01:55:34.370Z,11.44
2016-04-10T01:56:34.389Z,11.45
2016-04-10T01:57:34.407Z,11.43
2016-04-10T01:58:34.425Z,11.41
2016-04-10T01:59:34.444Z,11.4
2016-04-10T02:00:34.447Z,11.4
2016-04-10T02:01:34.480Z,11.37
2016-04-10T02:02:34.499Z,11.37
2016-04-10T02:03:34.517Z,11.36
2016-04-10T02:04:34.535Z,11.4
2016-04-10T02:05:34.569Z,11.35
2016-04-10T02:06:34.571Z,11.41
2016-04-10T02:07:34.840Z,11.36
2016-04-10T02:08:34.625Z,11.33
2016-04-10T02:09:34.643Z,11.32
2016-04-10T02:10:34.661Z,11.37
2016-04-10T02:11:34.695Z,11.41
2016-04-10T02:12:34.698Z,11.27
2016-04-10T02:13:34.716Z,11.35
2016-04-10T02:14:34.734Z,11.36
2016-04-10T02:15:34.753Z,11.26
2016-04-10T02:16:34.771Z,11.29
2016-04-10T02:17:34.789Z,11.27
2016-04-10T02:18:34.824Z,11.27
2016-04-10T02:19:34.842Z,11.25
2016-04-10T02:20:34.860Z,11.25
2016-04-10T02:21:34.878Z,11.22
2016-04-10T02:22:34.897Z,11.25
2016-04-10T02:23:34.915Z,11.22
2016-04-10T02:24:34.948Z,11.25
2016-04-10T02:25:34.951Z,11.18
2016-04-10T02:26:34.985Z,11.19
2016-04-10T02:27:34.988Z,11.22
2016-04-10T02:28:35.022Z,11.18
2016-04-10T02:29:35.041Z,11.15
2016-04-10T02:30:35.044Z,11.18
2016-04-10T02:31:35.077Z,11.19
2016-04-10T02:32:35.094Z,11.25
2016-04-10T02:33:35.114Z,11.17
2016-04-10T02:34:35.132Z,11.11
2016-04-10T02:35:35.166Z,11.12
2016-04-10T02:36:35.184Z,11.05
2016-04-10T02:37:35.187Z,11.1
2016-04-10T02:38:35.221Z,11.11
2016-04-10T02:39:35.238Z,11.14
2016-04-10T02:40:35.241Z,11.08
2016-04-10T02:41:35.276Z,11
2016-04-10T02:42:35.294Z,10.96
2016-04-10T02:43:35.313Z,11.02
2016-04-10T02:44:35.331Z,10.96
2016-04-10T02:45:35.349Z,11.04
2016-04-10T02:46:35.367Z,11
2016-04-10T02:47:35.385Z,11
2016-04-10T02:48:35.420Z,11.05
2016-04-10T02:49:35.437Z,10.93
2016-04-10T02:50:35.456Z,10.99
2016-04-10T02:51:35.442Z,10.97
2016-04-10T02:52:35.477Z,10.99
2016-04-10T02:53:35.526Z,10.94
2016-04-10T02:54:35.529Z,10.93
2016-04-10T02:55:35.548Z,10.96
2016-04-10T02:56:35.566Z,10.87
2016-04-10T02:57:35.584Z,10.93
2016-04-10T02:58:35.619Z,10.92
2016-04-10T02:59:35.621Z,10.86
2016-04-10T03:00:35.655Z,10.87
2016-04-10T03:01:35.657Z,10.94
2016-04-10T03:02:35.675Z,10.87
2016-04-10T03:03:35.711Z,10.93
2016-04-10T03:04:35.713Z,10.81
2016-04-10T03:05:35.730Z,10.9
2016-04-10T03:06:35.749Z,10.84
2016-04-10T03:07:35.783Z,10.81
2016-04-10T03:08:35.852Z,10.82
2016-04-10T03:09:35.822Z,10.79
2016-04-10T03:10:35.825Z,10.76
2016-04-10T03:11:35.860Z,10.81
2016-04-10T03:12:35.877Z,10.86
2016-04-10T03:13:35.896Z,10.89
2016-04-10T03:14:35.913Z,10.81
2016-04-10T03:15:35.932Z,10.84
2016-04-10T03:16:35.966Z,10.74
2016-04-10T03:17:35.969Z,10.72
2016-04-10T03:18:35.988Z,10.75
2016-04-10T03:19:36.006Z,10.75
2016-04-10T03:20:36.040Z,10.69
2016-04-10T03:21:36.058Z,10.76
2016-04-10T03:22:36.092Z,10.71
2016-04-10T03:23:36.095Z,10.74
2016-04-10T03:24:36.112Z,10.79
2016-04-10T03:25:36.132Z,10.76
2016-04-10T03:26:36.150Z,10.76
2016-04-10T03:27:36.184Z,10.79
2016-04-10T03:28:36.202Z,10.75
2016-04-10T03:29:36.204Z,10.74
2016-04-10T03:30:36.223Z,10.71
2016-04-10T03:31:36.257Z,10.76
2016-04-10T03:32:36.275Z,10.75
2016-04-10T03:33:36.294Z,10.67
2016-04-10T03:34:36.296Z,10.76
2016-04-10T03:35:36.330Z,10.68
2016-04-10T03:36:36.348Z,10.69
2016-04-10T03:37:36.350Z,10.63
2016-04-10T03:38:36.386Z,10.68
2016-04-10T03:39:36.388Z,10.61
2016-04-10T03:40:36.422Z,10.64
2016-04-10T03:41:36.441Z,10.61
2016-04-10T03:42:36.458Z,10.68
2016-04-10T03:43:36.477Z,10.59
2016-04-10T03:44:36.494Z,10.68
2016-04-10T03:45:36.529Z,10.67
2016-04-10T03:46:36.532Z,10.6
2016-04-10T03:47:36.566Z,10.56
2016-04-10T03:48:36.585Z,10.56
2016-04-10T03:49:36.586Z,10.53
2016-04-10T03:50:36.605Z,10.54
2016-04-10T03:51:36.624Z,10.53
2016-04-10T03:52:36.657Z,10.56
2016-04-10T03:53:36.660Z,10.54
2016-04-10T03:54:36.693Z,10.54
2016-04-10T03:55:36.712Z,10.49
2016-04-10T03:56:36.731Z,10.56
2016-04-10T03:57:36.749Z,10.44
2016-04-10T03:58:36.767Z,10.48
2016-04-10T03:59:36.784Z,10.38
2016-04-10T04:00:36.803Z,10.41
2016-04-10T04:01:36.823Z,10.44
2016-04-10T04:02:36.840Z,10.42
2016-04-10T04:03:36.859Z,10.46
2016-04-10T04:04:36.877Z,10.4
2016-04-10T04:05:36.911Z,10.41
2016-04-10T04:06:36.929Z,10.42
2016-04-10T04:07:36.931Z,10.41
2016-04-10T04:08:36.950Z,10.4
2016-04-10T04:09:36.984Z,10.37
2016-04-10T04:10:37.003Z,10.33
2016-04-10T04:11:37.006Z,10.37
2016-04-10T04:12:37.039Z,10.3
2016-04-10T04:13:37.058Z,10.3
2016-04-10T04:14:37.075Z,10.26
2016-04-10T04:15:37.094Z,10.4
2016-04-10T04:16:37.113Z,10.42
2016-04-10T04:17:37.130Z,10.33
2016-04-10T04:18:37.149Z,10.28
2016-04-10T04:19:37.167Z,10.26
2016-04-10T04:20:37.185Z,10.4
2016-04-10T04:21:36.469Z,10.33
2016-04-10T04:22:37.222Z,10.41
2016-04-10T04:23:37.241Z,10.28
2016-04-10T04:24:37.274Z,10.34
2016-04-10T04:25:37.277Z,10.33
2016-04-10T04:26:37.296Z,10.34
2016-04-10T04:27:37.314Z,10.35
2016-04-10T04:28:37.348Z,10.33
2016-04-10T04:29:37.351Z,10.3
2016-04-10T04:30:37.368Z,10.28
2016-04-10T04:31:37.403Z,10.3
2016-04-10T04:32:37.406Z,10.25
2016-04-10T04:33:37.424Z,10.22
2016-04-10T04:34:37.442Z,10.28
2016-04-10T04:35:37.476Z,10.28
2016-04-10T04:36:37.478Z,10.25
2016-04-10T04:37:37.497Z,10.26
2016-04-10T04:38:37.531Z,10.25
2016-04-10T04:39:37.564Z,10.23
2016-04-10T04:40:37.567Z,10.26
2016-04-10T04:41:37.586Z,10.3
2016-04-10T04:42:37.605Z,10.3
2016-04-10T04:43:37.638Z,10.28
2016-04-10T04:44:37.624Z,10.23
2016-04-10T04:45:37.659Z,10.17
2016-04-10T04:46:37.693Z,10.3
2016-04-10T04:47:37.695Z,10.28
2016-04-10T04:48:37.714Z,10.23
2016-04-10T04:49:37.748Z,10.17
2016-04-10T04:50:37.755Z,10.22
2016-04-10T04:51:37.774Z,10.15
2016-04-10T04:52:37.807Z,10.2
2016-04-10T04:53:37.810Z,10.16
2016-04-10T04:54:37.845Z,10.17
2016-04-10T04:55:37.848Z,10.17
2016-04-10T04:56:37.865Z,10.1
2016-04-10T04:57:37.867Z,10.17
2016-04-10T04:58:37.902Z,10.17
2016-04-10T04:59:37.920Z,10.17
2016-04-10T05:00:37.938Z,10.19
2016-04-10T05:01:37.957Z,10.17
2016-04-10T05:02:37.975Z,10.23
2016-04-10T05:03:37.994Z,10.1
2016-04-10T05:04:38.012Z,10.09
2016-04-10T05:05:38.030Z,10.16
2016-04-10T05:06:38.048Z,10.19
2016-04-10T05:07:38.067Z,10.12
2016-04-10T05:08:38.100Z,10.05
2016-04-10T05:09:38.119Z,10.13
2016-04-10T05:10:38.138Z,10.13
2016-04-10T05:11:38.140Z,10.1
2016-04-10T05:12:38.159Z,10.2
2016-04-10T05:13:38.177Z,10.13
2016-04-10T05:14:38.211Z,10.12
2016-04-10T05:15:38.229Z,10.16
2016-04-10T05:16:38.247Z,10.12
2016-04-10T05:17:38.265Z,10.19
2016-04-10T05:18:38.285Z,10.12
2016-04-10T05:19:38.302Z,10.16
2016-04-10T05:20:38.320Z,10.1
2016-04-10T05:21:38.339Z,10.2
2016-04-10T05:22:38.357Z,10.16
2016-04-10T05:23:38.375Z,10.15
2016-04-10T05:24:38.394Z,10.1
2016-04-10T05:25:38.412Z,10.13
2016-04-10T05:26:38.431Z,10.07
2016-04-10T05:27:38.448Z,10.1
2016-04-10T05:28:38.467Z,10.1
2016-04-10T05:29:38.485Z,10.13
2016-04-10T05:30:38.503Z,10.09
2016-04-10T05:31:38.522Z,10.12
2016-04-10T05:32:38.540Z,10.13
2016-04-10T05:33:38.558Z,10.17
2016-04-10T05:34:38.578Z,10.16
2016-04-10T05:35:38.611Z,10.09
2016-04-10T05:36:38.613Z,10.19
2016-04-10T05:37:38.632Z,10.1
2016-04-10T05:38:38.666Z,10.25
2016-04-10T05:39:38.668Z,10.2
2016-04-10T05:40:38.687Z,10.17
2016-04-10T05:41:38.705Z,10.2
2016-04-10T05:42:38.739Z,10.25
2016-04-10T05:43:38.742Z,10.25
2016-04-10T05:44:38.760Z,10.26
2016-04-10T05:45:38.778Z,10.26
2016-04-10T05:46:38.812Z,10.26
2016-04-10T05:47:38.908Z,10.3
2016-04-10T05:48:38.833Z,10.25
2016-04-10T05:49:39.164Z,10.3
2016-04-10T05:50:38.871Z,10.38
2016-04-10T05:51:38.888Z,10.33
2016-04-10T05:52:38.922Z,10.35
2016-04-10T05:53:38.940Z,10.31
2016-04-10T05:54:38.959Z,10.34
2016-04-10T05:55:38.977Z,10.37
2016-04-10T05:56:38.979Z,10.38
2016-04-10T05:57:38.843Z,10.4
2016-04-10T05:58:39.032Z,10.4
2016-04-10T05:59:39.050Z,10.4
2016-04-10T06:00:39.068Z,10.41
2016-04-10T06:01:39.087Z,10.44
2016-04-10T06:02:39.105Z,10.54
2016-04-10T06:03:39.123Z,10.44
2016-04-10T06:04:39.142Z,10.53
2016-04-10T06:05:39.161Z,10.54
2016-04-10T06:06:39.178Z,10.48
2016-04-10T06:07:39.197Z,10.64
2016-04-10T06:08:39.325Z,10.63
2016-04-10T06:09:39.233Z,10.63
2016-04-10T06:10:39.252Z,10.59
2016-04-10T06:11:39.270Z,10.68
2016-04-10T06:12:39.304Z,10.67
2016-04-10T06:13:39.308Z,10.67
2016-04-10T06:14:39.341Z,10.76
2016-04-10T06:15:39.358Z,10.76
2016-04-10T06:16:39.361Z,10.78
2016-04-10T06:17:39.396Z,10.78
2016-04-10T06:18:39.413Z,10.81
2016-04-10T06:19:39.432Z,10.71
2016-04-10T06:20:39.466Z,10.87
2016-04-10T06:21:39.454Z,10.79
2016-04-10T06:22:39.518Z,10.74
2016-04-10T06:23:39.577Z,10.81
2016-04-10T06:24:39.408Z,10.86
2016-04-10T06:25:40.203Z,10.82
2016-04-10T06:26:39.554Z,10.84
2016-04-10T06:27:39.557Z,10.92
2016-04-10T06:28:39.574Z,10.9
2016-04-10T06:29:39.593Z,10.96
2016-04-10T06:30:39.627Z,10.99
2016-04-10T06:31:39.645Z,10.94
2016-04-10T06:32:39.648Z,10.97
2016-04-10T06:33:39.682Z,10.99
2016-04-10T06:34:39.701Z,11.02
2016-04-10T06:35:39.703Z,11.1
2016-04-10T06:36:39.737Z,11.11
2016-04-10T06:37:39.755Z,11.11
2016-04-10T06:38:39.882Z,11.15
2016-04-10T06:39:39.806Z,11.15
2016-04-10T06:40:39.826Z,11.18
2016-04-10T06:41:39.828Z,11.19
2016-04-10T06:42:39.722Z,11.3
2016-04-10T06:43:39.865Z,11.3
2016-04-10T06:44:39.883Z,11.27
2016-04-10T06:45:39.901Z,11.4
2016-04-10T06:46:39.920Z,11.35
2016-04-10T06:47:40.266Z,11.37
2016-04-10T06:48:39.956Z,11.41
2016-04-10T06:49:39.975Z,11.5
2016-04-10T06:50:40.103Z,11.5
2016-04-10T06:51:40.027Z,11.45
2016-04-10T06:52:40.030Z,11.5
2016-04-10T06:53:40.064Z,11.57
2016-04-10T06:54:40.082Z,11.62
2016-04-10T06:55:40.100Z,11.54
2016-04-10T06:56:40.118Z,11.65
2016-04-10T06:57:40.138Z,11.68
2016-04-10T06:58:40.155Z,11.69
2016-04-10T06:59:40.173Z,11.65
2016-04-10T07:00:40.192Z,11.63
2016-04-10T07:01:40.210Z,11.68
2016-04-10T07:02:40.353Z,11.75
2016-04-10T07:03:40.247Z,11.75
2016-04-10T07:04:40.375Z,11.78
2016-04-10T07:05:40.377Z,11.77
2016-04-10T07:06:40.317Z,11.72
2016-04-10T07:07:40.430Z,11.83
2016-04-10T07:08:40.432Z,11.86
2016-04-10T07:09:40.434Z,11.83
2016-04-10T07:10:40.437Z,11.9
2016-04-10T07:11:40.409Z,11.86
2016-04-10T07:12:40.458Z,11.87
2016-04-10T07:13:40.477Z,11.9
2016-04-10T07:14:40.479Z,11.9
2016-04-10T07:15:40.482Z,12.02
2016-04-10T07:16:40.547Z,12.03
2016-04-10T07:17:40.566Z,11.97
2016-04-10T07:18:40.569Z,12.07
2016-04-10T07:19:40.664Z,12.1
2016-04-10T07:20:40.542Z,12.02
2016-04-10T07:21:40.686Z,12.04
2016-04-10T07:22:40.704Z,12.13
2016-04-10T07:23:40.739Z,12.15
2016-04-10T07:24:40.741Z,12.25
2016-04-10T07:25:40.744Z,12.29
2016-04-10T07:26:40.761Z,12.28
2016-04-10T07:27:40.718Z,12.28
2016-04-10T07:28:40.736Z,12.28
2016-04-10T07:29:40.754Z,12.36
2016-04-10T07:30:40.772Z,12.4
2016-04-10T07:31:40.807Z,12.43
2016-04-10T07:32:40.824Z,12.42
2016-04-10T07:33:40.828Z,12.45
2016-04-10T07:34:40.877Z,12.47
2016-04-10T07:35:40.911Z,12.47
2016-04-10T07:36:40.898Z,12.5
2016-04-10T07:37:40.932Z,12.55
2016-04-10T07:38:40.950Z,12.68
2016-04-10T07:39:40.984Z,12.72
2016-04-10T07:40:40.986Z,12.65
2016-04-10T07:41:40.990Z,12.78
2016-04-10T07:42:41.054Z,12.75
2016-04-10T07:43:41.042Z,12.83
2016-04-10T07:44:41.060Z,12.91
2016-04-10T07:45:41.078Z,12.95
2016-04-10T07:46:41.097Z,12.93
2016-04-10T07:47:41.115Z,13.03
2016-04-10T07:48:41.134Z,13
2016-04-10T07:49:41.167Z,13.08
2016-04-10T07:50:41.185Z,12.98
2016-04-10T07:51:41.203Z,13.03
2016-04-10T07:52:41.222Z,13.15
2016-04-10T07:53:41.272Z,13.22
2016-04-10T07:54:41.259Z,13.16
2016-04-10T07:55:41.277Z,13.19
2016-04-10T07:56:41.296Z,13.22
2016-04-10T07:57:41.330Z,13.22
2016-04-10T07:58:41.347Z,13.22
2016-04-10T07:59:41.366Z,13.22
2016-04-10T08:00:41.385Z,13.31
2016-04-10T08:01:41.402Z,13.33
2016-04-10T08:02:41.422Z,13.38
2016-04-10T08:03:41.486Z,13.33
2016-04-10T08:04:41.458Z,13.41
2016-04-10T08:05:41.476Z,13.42
2016-04-10T08:06:41.526Z,13.53
2016-04-10T08:07:41.559Z,13.52
2016-04-10T08:08:41.546Z,13.62
2016-04-10T08:09:41.581Z,13.7
2016-04-10T08:10:41.598Z,13.67
2016-04-10T08:11:41.602Z,13.68
2016-04-10T08:12:41.651Z,13.71
2016-04-10T08:13:41.669Z,13.77
2016-04-10T08:14:41.673Z,13.79
2016-04-10T08:15:41.690Z,13.78
2016-04-10T08:16:41.708Z,13.81
2016-04-10T08:17:41.742Z,13.81
2016-04-10T08:18:41.761Z,13.83
2016-04-10T08:19:41.779Z,13.85
2016-04-10T08:20:41.798Z,13.92
2016-04-10T08:21:41.816Z,13.92
2016-04-10T08:22:41.850Z,13.97
2016-04-10T08:23:41.852Z,14.04
2016-04-10T08:24:41.886Z,14.05
2016-04-10T08:25:41.904Z,14.1
2016-04-10T08:26:41.923Z,14.14
2016-04-10T08:27:41.957Z,14.14
2016-04-10T08:28:41.960Z,14.12
2016-04-10T08:29:41.978Z,14.1
2016-04-10T08:30:42.012Z,14.14
2016-04-10T08:31:42.030Z,14.2
2016-04-10T08:32:42.049Z,14.15
2016-04-10T08:33:42.082Z,14.3
2016-04-10T08:34:42.101Z,14.28
2016-04-10T08:35:42.119Z,14.26
2016-04-10T08:36:42.137Z,14.33
2016-04-10T08:37:42.157Z,14.28
2016-04-10T08:38:42.174Z,14.35
2016-04-10T08:39:42.192Z,14.47
2016-04-10T08:40:42.211Z,14.41
2016-04-10T08:41:42.245Z,14.54
2016-04-10T08:42:42.262Z,14.54
2016-04-10T08:43:42.282Z,14.59
2016-04-10T08:44:42.315Z,14.6
2016-04-10T08:45:42.334Z,14.63
2016-04-10T08:46:42.352Z,14.7
2016-04-10T08:47:42.370Z,14.73
2016-04-10T08:48:42.388Z,14.82
2016-04-10T08:49:42.407Z,14.73
2016-04-10T08:50:42.441Z,14.82
2016-04-10T08:51:42.458Z,14.94
2016-04-10T08:52:42.492Z,14.91
2016-04-10T08:53:42.511Z,14.89
2016-04-10T08:54:42.514Z,15.03
2016-04-10T08:55:42.547Z,15
2016-04-10T08:56:42.567Z,15.02
2016-04-10T08:57:42.585Z,15.03
2016-04-10T08:58:42.618Z,14.99
2016-04-10T08:59:42.622Z,15.06
2016-04-10T09:00:42.639Z,15.03
2016-04-10T09:01:42.674Z,15.04
2016-04-10T09:02:42.691Z,15.07
2016-04-10T09:03:42.726Z,15.14
2016-04-10T09:04:42.744Z,15.14
2016-04-10T09:05:42.746Z,15.14
2016-04-10T09:06:42.780Z,15.09
2016-04-10T09:07:42.799Z,15.11
2016-04-10T09:08:42.832Z,15.07
2016-04-10T09:09:42.852Z,15.09
2016-04-10T09:10:42.870Z,15.18
2016-04-10T09:11:42.887Z,15.03
2016-04-10T09:12:43.546Z,14.99
2016-04-10T09:13:42.940Z,15.09
2016-04-10T09:14:42.959Z,15.07
2016-04-10T09:15:42.976Z,15.03
2016-04-10T09:16:43.011Z,14.99
2016-04-10T09:17:43.045Z,15.03
2016-04-10T09:18:43.047Z,15.03
2016-04-10T09:19:43.065Z,15.04
2016-04-10T09:20:43.099Z,15.17
2016-04-10T09:21:43.118Z,15.15
2016-04-10T09:22:43.745Z,15.14
2016-04-10T09:23:43.186Z,15.11
2016-04-10T09:24:43.173Z,15.19
2016-04-10T09:25:43.191Z,15.11
2016-04-10T09:26:43.225Z,15.22
2016-04-10T09:27:43.243Z,15.19
2016-04-10T09:28:43.386Z,15.19
2016-04-10T09:29:43.405Z,15.18
2016-04-10T09:30:43.408Z,15.29
2016-04-10T09:31:43.441Z,15.29
2016-04-10T09:32:43.460Z,15.36
2016-04-10T09:33:43.447Z,15.39
2016-04-10T09:34:43.496Z,15.36
2016-04-10T09:35:43.515Z,15.4
2016-04-10T09:36:43.549Z,15.54
2016-04-10T09:37:43.552Z,15.52
2016-04-10T09:38:43.554Z,15.52
2016-04-10T09:39:43.557Z,15.64
2016-04-10T09:40:44.013Z,15.62
2016-04-10T09:41:43.578Z,15.62
2016-04-10T09:42:43.581Z,15.59
2016-04-10T09:43:44.224Z,15.83
2016-04-10T09:44:43.679Z,15.84
2016-04-10T09:45:46.667Z,15.9
2016-04-10T09:46:43.748Z,15.9
2016-04-10T09:47:43.656Z,15.97
2016-04-10T09:48:43.722Z,15.97
2016-04-10T09:49:43.725Z,15.97
2016-04-10T09:50:43.774Z,16.02
2016-04-10T09:51:43.776Z,16.05
2016-04-10T09:52:43.811Z,16.13
2016-04-10T09:53:43.828Z,16.17
2016-04-10T09:54:43.863Z,16.12
2016-04-10T09:55:43.866Z,16.21
2016-04-10T09:56:43.900Z,16.23
2016-04-10T09:57:43.903Z,16.23
2016-04-10T09:58:44.045Z,16.28
2016-04-10T09:59:44.064Z,16.36
2016-04-10T10:00:44.207Z,16.39
2016-04-10T10:01:44.241Z,16.36
2016-04-10T10:02:44.228Z,16.56
2016-04-10T10:03:44.246Z,16.54
2016-04-10T10:04:44.077Z,16.61
2016-04-10T10:05:44.096Z,16.71
2016-04-10T10:06:44.161Z,16.75
2016-04-10T10:07:44.149Z,16.75
2016-04-10T10:08:44.154Z,16.79
2016-04-10T10:09:44.189Z,16.87
2016-04-10T10:10:44.223Z,17.01
2016-04-10T10:11:44.255Z,17.02
2016-04-10T10:12:44.331Z,17.06
2016-04-10T10:13:44.391Z,17.02
2016-04-10T10:14:44.451Z,17.14
2016-04-10T10:15:43.793Z,17.12
2016-04-10T10:16:44.569Z,17.22
2016-04-10T10:17:44.603Z,17.34
2016-04-10T10:18:44.652Z,17.34
2016-04-10T10:19:44.686Z,17.41
2016-04-10T10:20:44.735Z,17.41
2016-04-10T10:21:44.747Z,17.46
2016-04-10T10:22:44.786Z,17.56
2016-04-10T10:23:44.826Z,17.52
2016-04-10T10:24:44.849Z,17.49
2016-04-10T10:25:44.873Z,17.51
2016-04-10T10:26:44.893Z,17.59
2016-04-10T10:27:44.758Z,17.52
2016-04-10T10:28:44.950Z,17.59
2016-04-10T10:29:44.970Z,17.57
2016-04-10T10:30:45.006Z,17.6
2016-04-10T10:31:45.026Z,17.57
2016-04-10T10:32:45.045Z,17.59
2016-04-10T10:33:45.080Z,17.52
2016-04-10T10:34:45.098Z,17.56
2016-04-10T10:35:45.134Z,17.52
2016-04-10T10:36:45.137Z,17.63
2016-04-10T10:37:45.171Z,17.63
2016-04-10T10:38:45.189Z,17.63
2016-04-10T10:39:45.224Z,17.7
2016-04-10T10:40:45.258Z,17.64
2016-04-10T10:41:45.277Z,17.71
2016-04-10T10:42:45.310Z,17.76
2016-04-10T10:43:45.328Z,17.72
2016-04-10T10:44:45.331Z,17.68
2016-04-10T10:45:45.366Z,17.79
2016-04-10T10:46:45.384Z,17.68
2016-04-10T10:47:45.418Z,17.82
2016-04-10T10:48:45.436Z,17.7
2016-04-10T10:49:45.454Z,17.71
2016-04-10T10:50:45.488Z,17.7
2016-04-10T10:51:45.507Z,17.7
2016-04-10T10:52:45.540Z,17.71
2016-04-10T10:53:45.621Z,17.68
2016-04-10T10:54:45.576Z,17.71
2016-04-10T10:55:45.626Z,17.68
2016-04-10T10:56:45.629Z,17.64
2016-04-10T10:57:45.772Z,17.67
2016-04-10T10:58:45.681Z,17.7
2016-04-10T10:59:45.700Z,17.7
2016-04-10T11:00:45.718Z,17.7
2016-04-10T11:01:45.752Z,17.71
2016-04-10T11:02:45.770Z,17.7
2016-04-10T11:03:45.804Z,17.68
2016-04-10T11:04:45.823Z,17.65
2016-04-10T11:05:45.841Z,17.68
2016-04-10T11:06:45.875Z,17.71
2016-04-10T11:07:45.893Z,17.72
2016-04-10T11:08:45.928Z,17.68
2016-04-10T11:09:45.946Z,17.67
2016-04-10T11:10:45.964Z,17.68
2016-04-10T11:11:45.983Z,17.8
2016-04-10T11:12:46.017Z,17.79
2016-04-10T11:13:46.034Z,17.79
2016-04-10T11:14:46.069Z,17.9
2016-04-10T11:15:46.086Z,17.85
2016-04-10T11:16:46.121Z,17.85
2016-04-10T11:17:46.139Z,17.87
2016-04-10T11:18:46.157Z,18.04
2016-04-10T11:19:46.191Z,18.03
2016-04-10T11:20:46.209Z,18.07
2016-04-10T11:21:46.243Z,18.15
2016-04-10T11:22:46.262Z,18.18
2016-04-10T11:23:46.296Z,18.11
2016-04-10T11:24:46.299Z,18.15
2016-04-10T11:25:46.332Z,18.15
2016-04-10T11:26:46.366Z,18.25
2016-04-10T11:27:46.384Z,18.28
2016-04-10T11:28:46.418Z,18.28
2016-04-10T11:29:46.437Z,18.26
2016-04-10T11:30:46.564Z,18.31
2016-04-10T11:31:46.567Z,18.38
2016-04-10T11:32:46.600Z,18.4
2016-04-10T11:33:46.619Z,18.47
2016-04-10T11:34:46.622Z,18.45
2016-04-10T11:35:46.625Z,18.56
2016-04-10T11:36:46.627Z,18.58
2016-04-10T11:37:46.646Z,18.56
2016-04-10T11:38:46.789Z,18.7
2016-04-10T11:39:46.792Z,18.75
2016-04-10T11:40:46.795Z,18.74
2016-04-10T11:41:46.734Z,18.74
2016-04-10T11:42:46.847Z,18.8
2016-04-10T11:43:46.849Z,18.84
2016-04-10T11:44:46.883Z,18.88
2016-04-10T11:45:46.886Z,18.92
2016-04-10T11:46:46.905Z,18.88
2016-04-10T11:47:46.908Z,18.92
2016-04-10T11:48:46.925Z,19.02
2016-04-10T11:49:46.944Z,19
2016-04-10T11:50:47.572Z,19.15
2016-04-10T11:51:46.980Z,19.14
2016-04-10T11:52:46.999Z,19.18
2016-04-10T11:53:47.032Z,19.27
2016-04-10T11:54:47.051Z,19.27
2016-04-10T11:55:47.085Z,19.33
2016-04-10T11:56:47.118Z,19.36
2016-04-10T11:57:47.137Z,19.39
2016-04-10T11:58:47.265Z,19.44
2016-04-10T11:59:47.282Z,19.4
2016-04-10T12:00:47.442Z,19.37
2016-04-10T12:01:47.304Z,19.37
2016-04-10T12:02:47.338Z,19.4
2016-04-10T12:03:47.498Z,19.44
2016-04-10T12:04:47.515Z,19.34
2016-04-10T12:05:47.518Z,19.44
2016-04-10T12:06:47.567Z,19.36
2016-04-10T12:07:47.570Z,19.45
2016-04-10T12:08:47.573Z,19.51
2016-04-10T12:09:47.544Z,19.48
2016-04-10T12:10:47.297Z,19.66
2016-04-10T12:11:47.596Z,19.69
2016-04-10T12:12:47.614Z,19.59
2016-04-10T12:13:47.617Z,19.54
2016-04-10T12:14:47.619Z,19.66
2016-04-10T12:15:47.623Z,19.58
2016-04-10T12:16:47.688Z,19.59
2016-04-10T12:17:47.706Z,19.63
2016-04-10T12:18:47.709Z,19.66
2016-04-10T12:19:47.711Z,19.64
2016-04-10T12:20:47.714Z,19.7
2016-04-10T12:21:47.841Z,19.79
2016-04-10T12:22:47.845Z,19.79
2016-04-10T12:23:47.879Z,19.81
2016-04-10T12:24:48.210Z,19.79
2016-04-10T12:25:47.900Z,19.77
2016-04-10T12:26:47.903Z,19.94
2016-04-10T12:27:47.921Z,19.92
2016-04-10T12:28:47.940Z,19.79
2016-04-10T12:29:47.943Z,19.85
2016-04-10T12:30:47.976Z,19.91
2016-04-10T12:31:47.994Z,19.95
2016-04-10T12:32:48.028Z,19.91
2016-04-10T12:33:48.062Z,20.04
2016-04-10T12:34:48.080Z,20.03
2016-04-10T12:35:48.098Z,20.07
2016-04-10T12:36:48.242Z,20.11
2016-04-10T12:37:48.228Z,20.09
2016-04-10T12:38:48.403Z,20.03
2016-04-10T12:39:48.187Z,20.06
2016-04-10T12:40:48.315Z,20.11
2016-04-10T12:41:48.334Z,20.09
2016-04-10T12:42:48.367Z,20.16
2016-04-10T12:43:48.401Z,20.13
2016-04-10T12:44:48.325Z,20.14
2016-04-10T12:45:48.360Z,20.26
2016-04-10T12:46:48.409Z,20.25
2016-04-10T12:47:48.411Z,20.32
2016-04-10T12:48:48.539Z,20.26
2016-04-10T12:49:48.479Z,20.24
2016-04-10T12:50:48.482Z,20.31
2016-04-10T12:51:48.751Z,20.37
2016-04-10T12:52:48.613Z,20.36
2016-04-10T12:53:48.663Z,20.43
2016-04-10T12:54:48.697Z,20.43
2016-04-10T12:55:48.621Z,20.37
2016-04-10T12:56:48.655Z,20.43